Time;durP1;ratioP1;P1;durP2;ratioP2;P2;SDS_P1;SDS_P2;PMS_P1;PMS_P2;Temp;Humidity;BMP_temperature;BMP_pressure;BME280_temperature;BME280_humidity;BME280_pressure;Samples;Min_cycle;Max_cycle;Signal;HPM_P1;HPM_P2
2023/09/06 00:00:43;;;;;;;8.43;4.27;;;15.80;98.00;;;;;;5013053;28;20450;-67
2023/09/06 00:03:10;;;;;;;7.50;4.27;;;15.90;98.00;;;;;;5012723;28;20956;-68
2023/09/06 00:05:41;;;;;;;9.80;4.00;;;15.90;98.00;;;;;;5012827;28;20491;-68
2023/09/06 00:08:09;;;;;;;17.13;4.03;;;15.80;98.00;;;;;;5012769;28;20490;-67
2023/09/06 00:10:38;;;;;;;9.30;4.40;;;16.00;98.00;;;;;;5011554;28;20505;-67
2023/09/06 00:13:06;;;;;;;8.63;4.13;;;15.80;98.00;;;;;;5012877;28;20870;-67
2023/09/06 00:15:34;;;;;;;6.80;4.00;;;15.60;98.00;;;;;;5012682;28;20490;-67
2023/09/06 00:18:03;;;;;;;6.67;3.73;;;15.50;98.00;;;;;;5012807;28;20950;-67
2023/09/06 00:20:30;;;;;;;7.00;4.37;;;15.50;98.00;;;;;;5012600;28;20451;-68
2023/09/06 00:22:59;;;;;;;8.93;4.00;;;15.50;98.00;;;;;;5012868;28;20475;-68
2023/09/06 00:25:27;;;;;;;7.47;3.83;;;15.60;98.00;;;;;;5012474;28;20456;-67
2023/09/06 00:27:56;;;;;;;6.60;4.07;;;15.50;98.00;;;;;;5012311;28;20845;-68
2023/09/06 00:30:23;;;;;;;8.00;4.40;;;15.40;98.00;;;;;;5012465;28;20638;-69
2023/09/06 00:32:53;;;;;;;6.83;4.20;;;15.50;98.00;;;;;;5012307;28;20451;-68
2023/09/06 00:35:20;;;;;;;7.10;4.13;;;15.40;98.00;;;;;;5012218;28;20459;-68
2023/09/06 00:37:47;;;;;;;6.60;4.20;;;15.40;98.00;;;;;;5012179;28;20518;-67
2023/09/06 00:40:17;;;;;;;8.70;4.37;;;15.30;98.00;;;;;;5012095;28;20456;-67
2023/09/06 00:42:47;;;;;;;6.83;3.90;;;15.30;98.00;;;;;;5012139;28;20458;-68
2023/09/06 00:45:15;;;;;;;7.60;3.97;;;15.20;98.00;;;;;;5011966;28;20545;-68
2023/09/06 00:47:44;;;;;;;8.40;3.77;;;15.10;98.00;;;;;;5011792;28;20486;-68
2023/09/06 00:50:14;;;;;;;8.13;4.00;;;15.20;98.00;;;;;;5012234;28;20962;-68
2023/09/06 00:52:42;;;;;;;9.83;4.37;;;15.30;98.00;;;;;;5012225;28;20714;-68
2023/09/06 00:55:11;;;;;;;9.63;4.20;;;15.20;98.00;;;;;;5011802;28;20487;-67
2023/09/06 00:57:40;;;;;;;8.40;4.47;;;15.20;98.00;;;;;;5011745;28;21153;-68
2023/09/06 01:00:15;;;;;;;9.23;4.63;;;15.20;98.00;;;;;;5011676;28;20549;-68
2023/09/06 01:02:42;;;;;;;9.97;4.00;;;15.20;98.00;;;;;;5011774;28;20949;-68
2023/09/06 01:05:10;;;;;;;10.90;4.33;;;15.30;98.00;;;;;;5011923;28;20501;-67
2023/09/06 01:07:39;;;;;;;7.43;4.00;;;15.30;98.00;;;;;;5011988;28;20448;-67
2023/09/06 01:10:07;;;;;;;7.67;3.97;;;15.20;98.00;;;;;;5012093;28;20451;-67
2023/09/06 01:12:35;;;;;;;10.40;4.70;;;15.10;98.00;;;;;;5011156;28;20452;-67
2023/09/06 01:15:04;;;;;;;8.03;4.07;;;15.20;98.00;;;;;;5011274;28;20480;-67
2023/09/06 01:17:37;;;;;;;7.47;3.97;;;15.00;98.00;;;;;;5011806;28;20534;-67
2023/09/06 01:20:15;;;;;;;7.40;3.83;;;14.90;98.00;;;;;;4994205;28;20459;-67
2023/09/06 01:22:49;;;;;;;9.20;4.10;;;14.90;98.00;;;;;;5011510;28;21019;-68
2023/09/06 01:25:19;;;;;;;9.77;4.20;;;15.00;98.00;;;;;;5011469;28;20450;-68
2023/09/06 01:27:47;;;;;;;6.53;3.43;;;15.20;98.00;;;;;;5011420;28;20467;-67
2023/09/06 01:30:15;;;;;;;7.23;4.10;;;15.30;98.00;;;;;;5010489;28;20506;-67
2023/09/06 01:32:42;;;;;;;7.90;4.40;;;15.30;98.00;;;;;;5011726;28;20813;-68
2023/09/06 01:35:10;;;;;;;6.93;3.87;;;15.00;98.00;;;;;;5011653;28;20459;-67
2023/09/06 01:37:38;;;;;;;7.90;4.10;;;15.10;98.00;;;;;;5011253;28;20458;-67
2023/09/06 01:40:17;;;;;;;6.17;3.93;;;15.10;98.00;;;;;;5010557;28;20451;-68
2023/09/06 01:42:45;;;;;;;6.57;3.87;;;15.00;98.00;;;;;;5011547;28;20450;-68
2023/09/06 01:45:17;;;;;;;14.30;4.10;;;14.70;98.00;;;;;;5011352;28;21015;-67
2023/09/06 01:47:44;;;;;;;11.47;4.50;;;14.50;98.00;;;;;;5011235;28;20452;-68
2023/09/06 01:50:12;;;;;;;6.90;3.87;;;14.40;98.00;;;;;;5011268;28;20459;-69
2023/09/06 01:52:39;;;;;;;9.70;4.20;;;14.50;98.00;;;;;;5011374;28;20452;-67
2023/09/06 01:55:08;;;;;;;9.10;4.73;;;14.60;98.00;;;;;;5011702;28;20458;-68
2023/09/06 01:57:35;;;;;;;8.27;4.03;;;14.50;98.00;;;;;;5011325;28;20478;-67
2023/09/06 02:00:18;;;;;;;9.53;4.73;;;14.40;98.00;;;;;;5010378;28;20456;-68
2023/09/06 02:02:45;;;;;;;7.50;4.07;;;14.50;98.00;;;;;;5011274;28;20462;-67
2023/09/06 02:05:13;;;;;;;16.37;4.53;;;14.40;98.00;;;;;;5011334;28;20452;-68
2023/09/06 02:07:40;;;;;;;7.83;3.60;;;14.40;98.00;;;;;;5010987;28;20447;-67
2023/09/06 02:10:09;;;;;;;7.47;4.20;;;14.40;98.00;;;;;;5011031;28;20480;-67
2023/09/06 02:12:36;;;;;;;8.93;4.20;;;14.50;98.00;;;;;;5009905;28;20464;-66
2023/09/06 02:15:06;;;;;;;6.93;3.83;;;14.50;98.00;;;;;;5011413;28;20834;-68
2023/09/06 02:17:33;;;;;;;13.57;4.10;;;14.60;98.00;;;;;;5010887;28;20479;-67
2023/09/06 02:20:12;;;;;;;8.70;4.10;;;14.60;98.00;;;;;;5011089;28;20448;-68
2023/09/06 02:22:40;;;;;;;9.40;4.37;;;14.30;98.00;;;;;;5011138;28;20452;-68
2023/09/06 02:25:08;;;;;;;6.70;4.00;;;14.10;98.00;;;;;;5012829;28;20538;-68
2023/09/06 02:27:35;;;;;;;7.47;4.23;;;14.00;98.00;;;;;;5014763;28;20447;-68
2023/09/06 02:30:08;;;;;;;8.63;4.23;;;13.90;98.00;;;;;;5014453;28;20485;-67
2023/09/06 02:32:35;;;;;;;9.17;4.80;;;14.00;98.00;;;;;;5014599;28;20462;-68
2023/09/06 02:35:07;;;;;;;9.93;4.10;;;14.10;98.00;;;;;;5014428;28;20459;-67
2023/09/06 02:37:34;;;;;;;8.53;3.97;;;14.30;98.00;;;;;;5014459;28;20813;-67
2023/09/06 02:40:02;;;;;;;8.23;4.20;;;14.40;98.00;;;;;;5014401;28;20474;-67
2023/09/06 02:42:30;;;;;;;9.50;4.67;;;14.30;98.00;;;;;;5014378;28;20451;-67
2023/09/06 02:44:57;;;;;;;8.70;4.37;;;14.20;98.00;;;;;;5014444;28;20458;-67
2023/09/06 02:47:28;;;;;;;7.83;4.40;;;14.20;98.00;;;;;;5014131;28;20466;-68
2023/09/06 02:49:56;;;;;;;8.57;4.40;;;14.30;98.00;;;;;;5014218;28;20494;-67
2023/09/06 02:52:35;;;;;;;8.77;4.10;;;14.30;98.00;;;;;;5013934;28;20484;-68
2023/09/06 02:55:05;;;;;;;8.23;4.23;;;14.40;98.00;;;;;;5014251;28;20466;-67
2023/09/06 02:57:34;;;;;;;10.50;3.90;;;14.40;98.00;;;;;;5014140;28;20447;-67
2023/09/06 03:00:07;;;;;;;7.83;4.30;;;14.40;98.00;;;;;;5013927;28;20823;-68
2023/09/06 03:02:36;;;;;;;8.30;4.30;;;14.30;98.00;;;;;;5013909;28;20463;-68
2023/09/06 03:05:04;;;;;;;9.20;4.43;;;14.30;98.00;;;;;;5013885;28;20459;-67
2023/09/06 03:07:32;;;;;;;9.80;4.50;;;14.30;98.00;;;;;;5013577;28;20978;-67
2023/09/06 03:09:59;;;;;;;12.00;4.43;;;14.30;98.00;;;;;;5013925;28;20725;-67
2023/09/06 03:12:26;;;;;;;10.37;4.07;;;14.30;98.00;;;;;;5013758;28;20456;-67
2023/09/06 03:14:59;;;;;;;8.60;4.33;;;14.20;98.00;;;;;;5013948;28;20463;-67
2023/09/06 03:17:26;;;;;;;15.67;6.77;;;14.20;98.00;;;;;;5013599;28;20458;-67
2023/09/06 03:19:59;;;;;;;9.80;5.20;;;14.20;98.00;;;;;;5013597;28;20463;-67
2023/09/06 03:22:27;;;;;;;12.67;4.83;;;14.20;98.00;;;;;;5013477;28;20535;-68
2023/09/06 03:24:55;;;;;;;13.07;4.57;;;14.30;98.00;;;;;;5013813;28;20543;-66
2023/09/06 03:27:22;;;;;;;7.90;3.90;;;14.20;98.00;;;;;;5013750;28;20466;-68
2023/09/06 03:29:51;;;;;;;7.87;4.50;;;14.20;98.00;;;;;;5013449;28;20506;-67
2023/09/06 03:32:19;;;;;;;9.17;4.60;;;14.30;98.00;;;;;;5013575;28;20452;-67
2023/09/06 03:34:46;;;;;;;8.43;3.93;;;14.10;98.00;;;;;;5013427;28;20467;-67
2023/09/06 03:37:18;;;;;;;8.17;4.37;;;14.00;98.00;;;;;;5012924;28;20479;-67
2023/09/06 03:39:47;;;;;;;7.07;4.00;;;14.10;98.00;;;;;;5012343;28;20761;-67
2023/09/06 03:42:15;;;;;;;6.50;3.70;;;13.90;98.00;;;;;;5013355;28;20458;-66
2023/09/06 03:44:42;;;;;;;8.20;4.17;;;13.90;98.00;;;;;;5013418;28;20509;-67
2023/09/06 03:47:13;;;;;;;7.00;4.20;;;13.80;98.00;;;;;;5013108;28;20487;-67
2023/09/06 03:49:41;;;;;;;9.50;4.67;;;13.70;98.00;;;;;;5012752;28;20528;-67
2023/09/06 03:52:09;;;;;;;6.27;3.93;;;13.60;98.00;;;;;;5012884;28;20867;-67
2023/09/06 03:54:40;;;;;;;7.90;4.20;;;13.70;98.00;;;;;;5012886;28;20447;-67
2023/09/06 03:57:12;;;;;;;8.67;4.30;;;13.70;98.00;;;;;;5012887;28;20458;-68
2023/09/06 03:59:44;;;;;;;7.70;4.03;;;13.70;98.00;;;;;;5012784;28;20456;-67
2023/09/06 04:02:13;;;;;;;11.03;4.20;;;13.60;98.00;;;;;;5012972;28;20455;-68
2023/09/06 04:04:40;;;;;;;7.53;4.37;;;13.50;98.00;;;;;;5012690;28;20507;-67
2023/09/06 04:07:07;;;;;;;8.73;4.23;;;13.60;98.00;;;;;;5012639;28;20479;-67
2023/09/06 04:09:37;;;;;;;9.13;3.90;;;13.70;98.00;;;;;;5012438;28;20528;-67
2023/09/06 04:12:06;;;;;;;7.90;4.00;;;13.60;98.00;;;;;;5012732;28;20520;-67
2023/09/06 04:14:35;;;;;;;7.40;3.90;;;13.60;98.00;;;;;;5011153;28;20487;-68
2023/09/06 04:17:07;;;;;;;7.93;3.93;;;13.50;98.00;;;;;;5012488;28;20555;-67
2023/09/06 04:19:34;;;;;;;10.83;4.47;;;13.60;98.00;;;;;;5012954;28;20458;-67
2023/09/06 04:22:03;;;;;;;8.03;4.17;;;13.40;98.00;;;;;;5012425;28;20498;-67
2023/09/06 04:24:30;;;;;;;7.20;4.23;;;13.20;98.00;;;;;;5012600;28;20463;-67
2023/09/06 04:26:57;;;;;;;7.50;4.17;;;13.20;98.00;;;;;;5012612;28;20474;-66
2023/09/06 04:29:26;;;;;;;11.00;3.93;;;13.20;98.00;;;;;;5012536;28;20525;-66
2023/09/06 04:31:54;;;;;;;8.80;4.63;;;13.30;98.00;;;;;;5012122;28;20868;-66
2023/09/06 04:34:22;;;;;;;8.20;4.40;;;13.20;98.00;;;;;;5012192;28;20502;-67
2023/09/06 04:36:49;;;;;;;6.37;3.80;;;13.10;98.00;;;;;;5012208;28;20968;-68
2023/09/06 04:39:17;;;;;;;7.33;3.60;;;13.10;98.00;;;;;;5012378;28;20542;-66
2023/09/06 04:41:44;;;;;;;9.87;4.70;;;13.20;98.00;;;;;;5012297;28;20550;-67
2023/09/06 04:44:24;;;;;;;8.00;4.03;;;13.40;98.00;;;;;;5012268;28;20455;-68
2023/09/06 04:46:54;;;;;;;5.17;3.40;;;13.30;98.00;;;;;;5012095;28;20591;-67
2023/09/06 04:49:21;;;;;;;6.13;3.77;;;13.20;98.00;;;;;;5011059;28;20483;-67
2023/09/06 04:51:48;;;;;;;9.53;4.47;;;13.20;98.00;;;;;;5011922;28;20487;-67
2023/09/06 04:54:15;;;;;;;8.33;4.37;;;13.20;98.00;;;;;;5012116;28;20876;-68
2023/09/06 04:56:42;;;;;;;10.20;4.27;;;13.30;98.00;;;;;;5011908;28;20459;-67
2023/09/06 04:59:09;;;;;;;8.20;4.00;;;13.30;98.00;;;;;;5011985;28;20455;-68
2023/09/06 05:01:37;;;;;;;7.80;4.53;;;13.20;98.00;;;;;;5011709;28;20457;-68
2023/09/06 05:04:06;;;;;;;10.37;4.70;;;13.00;98.00;;;;;;5010711;28;20463;-68
2023/09/06 05:06:32;;;;;;;7.83;4.20;;;12.90;98.00;;;;;;5011881;28;20466;-68
2023/09/06 05:09:00;;;;;;;8.40;4.10;;;12.90;98.00;;;;;;5011827;28;20458;-68
2023/09/06 05:11:27;;;;;;;7.97;4.13;;;13.00;98.00;;;;;;5010429;28;20444;-68
2023/09/06 05:13:54;;;;;;;7.80;4.27;;;13.00;98.00;;;;;;5011639;28;20458;-67
2023/09/06 05:16:21;;;;;;;12.77;4.97;;;12.90;98.00;;;;;;5011716;28;20475;-67
2023/09/06 05:18:48;;;;;;;9.10;4.53;;;12.80;98.00;;;;;;5011678;28;20454;-66
2023/09/06 05:21:16;;;;;;;9.63;4.67;;;12.70;98.00;;;;;;5011788;28;20451;-67
2023/09/06 05:23:44;;;;;;;19.50;5.40;;;12.80;98.00;;;;;;5011683;28;20467;-67
2023/09/06 05:26:11;;;;;;;8.87;4.97;;;12.90;98.00;;;;;;5011580;28;20469;-67
2023/09/06 05:28:42;;;;;;;10.80;5.13;;;13.00;98.00;;;;;;5011554;28;20991;-67
2023/09/06 05:31:09;;;;;;;10.10;4.33;;;13.00;98.00;;;;;;5011609;28;20493;-67
2023/09/06 05:33:36;;;;;;;7.43;4.03;;;13.00;98.00;;;;;;5011386;28;20493;-67
2023/09/06 05:36:03;;;;;;;7.47;4.13;;;13.10;98.00;;;;;;5011522;28;21050;-66
2023/09/06 05:38:32;;;;;;;10.33;4.63;;;13.20;98.00;;;;;;5011441;28;20538;-67
2023/09/06 05:41:01;;;;;;;12.07;4.40;;;13.10;98.00;;;;;;5011441;28;20831;-67
2023/09/06 05:43:29;;;;;;;9.60;4.00;;;13.10;98.00;;;;;;5011443;28;20737;-68
2023/09/06 05:45:56;;;;;;;9.10;5.00;;;13.10;98.00;;;;;;5011472;28;20492;-67
2023/09/06 05:48:23;;;;;;;9.13;4.50;;;13.20;98.00;;;;;;5011317;28;20463;-68
2023/09/06 05:50:50;;;;;;;10.30;4.17;;;13.20;98.00;;;;;;5009871;28;20486;-65
2023/09/06 05:53:17;;;;;;;10.00;5.00;;;13.10;98.00;;;;;;5011630;28;20828;-65
2023/09/06 05:55:45;;;;;;;7.63;4.20;;;13.00;98.00;;;;;;5011349;28;20446;-64
2023/09/06 05:58:12;;;;;;;11.10;5.30;;;13.00;98.00;;;;;;5011867;28;20455;-64
2023/09/06 06:00:41;;;;;;;7.47;4.10;;;13.20;98.00;;;;;;5014479;28;20797;-64
2023/09/06 06:03:09;;;;;;;8.83;4.70;;;13.30;98.00;;;;;;5015982;28;20457;-64
2023/09/06 06:05:36;;;;;;;11.93;4.60;;;13.30;98.00;;;;;;5014341;28;20465;-64
2023/09/06 06:08:03;;;;;;;8.40;4.40;;;13.30;98.00;;;;;;5015630;28;20451;-65
2023/09/06 06:10:34;;;;;;;9.47;4.43;;;13.40;98.00;;;;;;5015612;28;20485;-64
2023/09/06 06:13:04;;;;;;;7.60;4.23;;;13.50;98.00;;;;;;5015402;28;20451;-64
2023/09/06 06:15:32;;;;;;;7.93;4.23;;;13.50;98.00;;;;;;5015627;28;20464;-65
2023/09/06 06:17:59;;;;;;;10.47;5.40;;;13.60;98.00;;;;;;5015440;28;20469;-64
2023/09/06 06:20:26;;;;;;;8.93;5.00;;;13.70;98.00;;;;;;5015588;28;20458;-65
2023/09/06 06:22:53;;;;;;;11.30;4.70;;;13.90;98.00;;;;;;5015528;28;20448;-65
2023/09/06 06:25:20;;;;;;;10.60;4.90;;;14.10;98.00;;;;;;5015705;28;20454;-66
2023/09/06 06:27:51;;;;;;;9.87;4.77;;;14.30;98.00;;;;;;5015354;28;20450;-64
2023/09/06 06:30:20;;;;;;;9.43;5.07;;;14.30;98.00;;;;;;5014338;28;21000;-65
2023/09/06 06:32:47;;;;;;;9.77;4.97;;;14.50;98.00;;;;;;5015241;28;20520;-64
2023/09/06 06:35:14;;;;;;;11.63;5.37;;;14.60;98.00;;;;;;5015456;28;20800;-65
2023/09/06 06:37:50;;;;;;;12.53;5.10;;;14.70;98.00;;;;;;5015223;28;20496;-65
2023/09/06 06:40:18;;;;;;;12.30;5.07;;;14.90;98.00;;;;;;5015337;28;20495;-64
2023/09/06 06:42:46;;;;;;;9.20;4.80;;;15.10;98.00;;;;;;5014038;28;20468;-65
2023/09/06 06:45:14;;;;;;;13.80;5.83;;;15.20;98.00;;;;;;5015230;28;20462;-65
2023/09/06 06:47:42;;;;;;;11.97;5.37;;;15.30;98.00;;;;;;5013852;28;20463;-65
2023/09/06 06:50:10;;;;;;;10.40;4.70;;;15.40;98.00;;;;;;5015046;28;20486;-65
2023/09/06 06:52:43;;;;;;;11.97;5.33;;;15.50;98.00;;;;;;5015073;28;20814;-65
2023/09/06 06:55:11;;;;;;;14.10;5.47;;;15.60;98.00;;;;;;5015095;28;20484;-65
2023/09/06 06:57:38;;;;;;;11.50;5.70;;;15.70;98.00;;;;;;5014828;28;21033;-65
2023/09/06 07:00:11;;;;;;;11.17;5.57;;;15.70;98.00;;;;;;5015359;28;20448;-65
2023/09/06 07:02:38;;;;;;;9.17;4.90;;;15.80;98.00;;;;;;5014889;28;20538;-65
2023/09/06 07:05:07;;;;;;;14.30;5.20;;;15.90;98.00;;;;;;5014531;28;20571;-65
2023/09/06 07:07:34;;;;;;;11.77;5.43;;;16.00;98.00;;;;;;5014878;28;20464;-65
2023/09/06 07:10:01;;;;;;;11.37;5.27;;;16.00;98.00;;;;;;5014470;28;20483;-65
2023/09/06 07:12:29;;;;;;;9.93;5.30;;;16.10;98.00;;;;;;5013527;28;20514;-65
2023/09/06 07:14:56;;;;;;;12.33;5.60;;;16.20;98.00;;;;;;5013846;28;20456;-65
2023/09/06 07:17:35;;;;;;;10.17;5.20;;;16.30;98.00;;;;;;5014481;28;20949;-65
2023/09/06 07:20:05;;;;;;;10.90;5.40;;;16.50;98.00;;;;;;5013449;28;20862;-65
2023/09/06 07:22:34;;;;;;;15.07;5.60;;;16.60;98.00;;;;;;5013958;28;20444;-65
2023/09/06 07:25:04;;;;;;;12.90;5.50;;;16.70;98.00;;;;;;5012731;28;20487;-65
2023/09/06 07:27:31;;;;;;;9.33;4.83;;;16.80;98.00;;;;;;5012817;28;20463;-65
2023/09/06 07:29:58;;;;;;;10.87;5.23;;;16.90;98.00;;;;;;5013491;28;20566;-65
2023/09/06 07:32:25;;;;;;;15.17;5.97;;;17.00;98.00;;;;;;5013591;28;20447;-65
2023/09/06 07:34:52;;;;;;;10.37;5.00;;;17.30;98.00;;;;;;5013322;28;20815;-65
2023/09/06 07:37:20;;;;;;;9.97;5.10;;;17.50;98.00;;;;;;5011576;28;20497;-65
2023/09/06 07:39:49;;;;;;;13.10;5.40;;;17.60;98.00;;;;;;5013018;28;20454;-65
2023/09/06 07:42:16;;;;;;;12.50;5.63;;;17.60;98.00;;;;;;5012929;28;20459;-65
2023/09/06 07:44:43;;;;;;;10.43;5.10;;;17.70;98.00;;;;;;5012955;28;20447;-65
2023/09/06 07:47:10;;;;;;;11.70;5.33;;;17.90;98.00;;;;;;5012864;28;20452;-65
2023/09/06 07:49:37;;;;;;;14.20;5.17;;;18.00;98.00;;;;;;5011567;28;20817;-65
2023/09/06 07:52:05;;;;;;;8.27;4.97;;;18.10;98.00;;;;;;5012837;28;20528;-65
2023/09/06 07:54:32;;;;;;;9.50;5.40;;;18.20;98.00;;;;;;5012581;28;20443;-65
2023/09/06 07:57:00;;;;;;;8.80;4.70;;;18.30;98.00;;;;;;5012926;28;20509;-66
2023/09/06 07:59:28;;;;;;;9.33;4.97;;;18.50;98.00;;;;;;5012832;28;20455;-66
2023/09/06 08:01:55;;;;;;;9.13;4.97;;;18.70;98.00;;;;;;5012868;28;20822;-65
2023/09/06 08:04:23;;;;;;;9.80;4.47;;;18.90;98.00;;;;;;5012951;28;20466;-66
2023/09/06 08:06:50;;;;;;;10.70;4.87;;;19.00;98.00;;;;;;5012761;28;20470;-66
2023/09/06 08:09:17;;;;;;;8.73;4.90;;;19.20;98.00;;;;;;5012651;28;20463;-67
2023/09/06 08:11:44;;;;;;;10.13;5.30;;;19.30;98.00;;;;;;5012467;28;20475;-65
2023/09/06 08:14:12;;;;;;;9.03;4.77;;;19.40;98.00;;;;;;5012710;28;20858;-66
2023/09/06 08:16:40;;;;;;;8.17;4.90;;;19.60;98.00;;;;;;5012402;28;20456;-65
2023/09/06 08:19:07;;;;;;;8.37;5.10;;;19.70;98.00;;;;;;5012765;28;20456;-66
2023/09/06 08:21:35;;;;;;;11.00;5.30;;;19.90;98.00;;;;;;5012460;28;20513;-65
2023/09/06 08:24:04;;;;;;;11.17;5.63;;;20.10;98.00;;;;;;5012315;28;20455;-66
2023/09/06 08:26:31;;;;;;;11.50;5.17;;;20.20;98.00;;;;;;5012290;28;20451;-66
2023/09/06 08:28:58;;;;;;;8.93;4.93;;;20.30;98.00;;;;;;5011162;28;20517;-66
2023/09/06 08:31:29;;;;;;;11.47;5.13;;;20.50;98.00;;;;;;5012624;28;20506;-64
2023/09/06 08:33:56;;;;;;;8.07;4.97;;;20.60;98.00;;;;;;5013136;28;20471;-66
2023/09/06 08:36:23;;;;;;;10.57;5.00;;;20.80;98.00;;;;;;5012979;28;21121;-62
2023/09/06 08:38:51;;;;;;;10.07;4.90;;;20.90;98.00;;;;;;5013213;28;20462;-65
2023/09/06 08:41:20;;;;;;;12.83;5.50;;;21.00;98.00;;;;;;5012187;28;20871;-65
2023/09/06 08:43:48;;;;;;;8.97;5.47;;;21.20;98.00;;;;;;5013238;28;20451;-66
2023/09/06 08:46:21;;;;;;;10.20;5.00;;;21.30;98.00;;;;;;5012897;28;20966;-67
2023/09/06 08:48:52;;;;;;;8.63;5.50;;;21.40;98.00;;;;;;5012814;28;20554;-67
2023/09/06 08:51:21;;;;;;;11.10;4.90;;;21.60;98.00;;;;;;5012497;28;20494;-67
2023/09/06 08:53:49;;;;;;;10.83;4.87;;;21.80;98.00;;;;;;5012693;28;20448;-67
2023/09/06 08:56:16;;;;;;;11.73;5.30;;;22.00;98.00;;;;;;5012367;28;20549;-67
2023/09/06 08:58:43;;;;;;;10.23;5.20;;;22.00;98.00;;;;;;5011292;28;20551;-67
2023/09/06 09:01:10;;;;;;;9.43;5.00;;;22.10;98.00;;;;;;5011836;28;20448;-67
2023/09/06 09:03:37;;;;;;;10.37;5.40;;;22.20;98.00;;;;;;5012485;28;20814;-67
2023/09/06 09:06:09;;;;;;;12.50;5.03;;;22.40;98.00;;;;;;5011830;28;20448;-67
2023/09/06 09:08:37;;;;;;;7.93;5.07;;;22.50;98.00;;;;;;5011671;28;20499;-67
2023/09/06 09:11:09;;;;;;;9.60;5.47;;;22.70;98.00;;;;;;5010961;28;20487;-67
2023/09/06 09:13:36;;;;;;;9.40;5.00;;;22.80;98.00;;;;;;5011532;28;20539;-67
2023/09/06 09:16:08;;;;;;;7.63;4.90;;;23.00;98.00;;;;;;5011687;28;20522;-67
2023/09/06 09:18:35;;;;;;;8.27;5.03;;;23.10;98.00;;;;;;5011537;28;20483;-67
2023/09/06 09:21:03;;;;;;;8.90;5.30;;;23.20;98.00;;;;;;5011564;28;20509;-67
2023/09/06 09:23:32;;;;;;;9.80;5.13;;;23.30;98.00;;;;;;5012096;28;20497;-67
2023/09/06 09:26:00;;;;;;;9.10;5.17;;;23.40;98.00;;;;;;5012079;28;20470;-67
2023/09/06 09:28:32;;;;;;;9.23;5.00;;;23.60;98.00;;;;;;5012081;28;20455;-67
2023/09/06 09:31:00;;;;;;;8.23;5.30;;;23.80;98.00;;;;;;5011939;28;21016;-67
2023/09/06 09:33:28;;;;;;;7.97;4.93;;;24.00;98.00;;;;;;5012408;28;20448;-67
2023/09/06 09:35:58;;;;;;;7.80;5.20;;;24.10;98.00;;;;;;5018205;28;20871;-68
2023/09/06 09:38:25;;;;;;;8.90;5.33;;;24.20;98.00;;;;;;5018533;28;20451;-67
2023/09/06 09:41:06;;;;;;;9.40;5.33;;;24.30;98.00;;;;;;5018597;28;20455;-67
2023/09/06 09:43:34;;;;;;;10.00;5.63;;;24.50;98.00;;;;;;5018734;28;20455;-67
2023/09/06 09:46:03;;;;;;;9.93;5.23;;;24.60;98.00;;;;;;5018492;28;20459;-68
2023/09/06 09:48:31;;;;;;;10.10;4.97;;;24.80;98.00;;;;;;5018287;28;20942;-67
2023/09/06 09:51:00;;;;;;;8.13;4.97;;;24.80;98.00;;;;;;5017175;28;20514;-67
2023/09/06 09:53:31;;;;;;;9.27;5.30;;;25.00;98.00;;;;;;5018523;28;20514;-67
2023/09/06 09:56:06;;;;;;;10.70;5.60;;;25.10;98.00;;;;;;5017395;28;20463;-67
2023/09/06 09:58:42;;;;;;;8.90;5.20;;;25.20;98.00;;;;;;5018144;28;20550;-67
2023/09/06 10:01:10;;;;;;;9.00;5.10;;;25.40;98.00;;;;;;5018423;28;20794;-65
2023/09/06 10:03:42;;;;;;;8.47;4.90;;;25.50;98.00;;;;;;5017802;28;20451;-67
2023/09/06 10:06:11;;;;;;;10.53;5.43;;;25.70;98.00;;;;;;5016793;28;20866;-64
2023/09/06 10:08:39;;;;;;;10.50;5.00;;;25.80;98.00;;;;;;5017775;28;20451;-65
2023/09/06 10:11:08;;;;;;;8.60;5.40;;;26.00;98.00;;;;;;5017531;28;20981;-65
2023/09/06 10:13:40;;;;;;;9.33;5.50;;;26.00;98.00;;;;;;5016516;28;20460;-67
2023/09/06 10:16:07;;;;;;;9.30;5.30;;;26.20;98.00;;;;;;5018413;28;20513;-66
2023/09/06 10:21:05;;;;;;;10.07;5.50;;;26.40;98.00;;;;;;5551039;22;20528;-65
2023/09/06 10:23:40;;;;;;;8.67;5.27;;;26.50;98.00;;;;;;5037505;28;20450;-67
2023/09/06 10:26:08;;;;;;;7.80;4.83;;;26.60;98.00;;;;;;5036945;28;20454;-64
2023/09/06 10:28:35;;;;;;;9.70;5.60;;;26.80;98.00;;;;;;5038330;28;20877;-61
2023/09/06 10:31:08;;;;;;;8.60;5.40;;;27.00;98.00;;;;;;5038092;28;20898;-62
2023/09/06 10:33:56;;;;;;;9.10;5.40;;;27.10;96.60;;;;;;5038347;28;20450;-61
2023/09/06 10:36:27;;;;;;;8.40;5.17;;;27.40;97.50;;;;;;5037786;28;20461;-63
2023/09/06 10:39:18;;;;;;;8.40;4.90;;;27.50;95.90;;;;;;5037819;28;20474;-61
2023/09/06 10:42:25;;;;;;;8.50;4.83;;;27.70;97.00;;;;;;5037991;28;20541;-62
2023/09/06 10:45:14;;;;;;;12.10;5.07;;;27.90;96.10;;;;;;5037822;28;20872;-61
2023/09/06 10:47:45;;;;;;;8.30;4.93;;;28.10;96.00;;;;;;5034369;28;20458;-61
2023/09/06 10:50:18;;;;;;;7.13;5.00;;;28.20;95.30;;;;;;5034725;28;20608;-61
2023/09/06 10:52:48;;;;;;;7.10;4.73;;;28.30;96.60;;;;;;5034400;28;21099;-61
2023/09/06 10:55:17;;;;;;;7.67;5.27;;;28.50;96.40;;;;;;5034615;28;20465;-61
2023/09/06 10:57:50;;;;;;;8.17;5.23;;;28.60;95.70;;;;;;5033148;28;20462;-61
2023/09/06 11:00:19;;;;;;;8.30;4.60;;;28.60;92.90;;;;;;5034733;28;20830;-61
2023/09/06 11:03:22;;;;;;;8.10;5.03;;;28.70;94.40;;;;;;5034413;28;20560;-61
2023/09/06 11:05:54;;;;;;;7.90;4.97;;;29.00;94.50;;;;;;5030859;28;20541;-61
2023/09/06 11:08:29;;;;;;;9.53;5.33;;;29.10;92.80;;;;;;5034237;28;20447;-61
2023/09/06 11:11:01;;;;;;;10.90;5.50;;;29.20;92.30;;;;;;5034288;28;20457;-62
2023/09/06 11:13:32;;;;;;;8.57;4.93;;;29.40;92.90;;;;;;5034285;28;20481;-61
2023/09/06 11:16:00;;;;;;;18.00;5.67;;;29.50;92.30;;;;;;5034171;28;20490;-61
2023/09/06 11:18:28;;;;;;;16.40;5.60;;;29.50;92.30;;;;;;5034050;28;20949;-61
2023/09/06 11:20:59;;;;;;;11.33;5.03;;;29.90;93.10;;;;;;5034129;28;20463;-61
2023/09/06 11:23:26;;;;;;;8.27;5.07;;;29.90;91.20;;;;;;5033049;28;20493;-61
2023/09/06 11:26:00;;;;;;;9.17;5.33;;;30.00;90.80;;;;;;5033757;28;20538;-62
2023/09/06 11:28:30;;;;;;;9.60;5.70;;;30.30;90.30;;;;;;5214768;22;20495;-61
2023/09/06 11:31:00;;;;;;;6.80;4.60;;;30.60;88.10;;;;;;5013692;28;20525;-61
2023/09/06 11:33:33;;;;;;;7.23;4.70;;;30.70;90.60;;;;;;5012123;28;20456;-62
2023/09/06 11:36:03;;;;;;;6.83;4.93;;;30.90;88.80;;;;;;5013480;28;20845;-61
2023/09/06 11:38:34;;;;;;;8.07;4.73;;;31.10;88.40;;;;;;5013810;28;20495;-61
2023/09/06 11:41:07;;;;;;;9.20;5.03;;;31.10;87.20;;;;;;5014011;28;20455;-61
2023/09/06 11:43:35;;;;;;;8.30;5.07;;;31.40;87.10;;;;;;5013029;28;20451;-62
2023/09/06 11:46:03;;;;;;;8.93;5.37;;;31.50;86.80;;;;;;5012975;28;20458;-62
2023/09/06 11:48:33;;;;;;;8.77;4.93;;;31.70;86.90;;;;;;5013898;28;20790;-62
2023/09/06 11:51:08;;;;;;;6.13;4.30;;;32.00;85.70;;;;;;5013911;28;20869;-62
2023/09/06 11:53:40;;;;;;;8.67;5.47;;;32.20;85.20;;;;;;5013947;28;20455;-62
2023/09/06 11:56:11;;;;;;;8.43;5.20;;;32.20;85.30;;;;;;5013885;28;20448;-61
2023/09/06 11:58:45;;;;;;;7.47;4.67;;;32.50;85.30;;;;;;5013347;28;20459;-61
2023/09/06 12:01:19;;;;;;;9.43;5.13;;;32.40;85.10;;;;;;5014061;28;20455;-61
2023/09/06 12:03:47;;;;;;;8.60;5.10;;;32.70;84.10;;;;;;5013779;28;20455;-61
2023/09/06 12:06:16;;;;;;;8.30;5.50;;;32.70;82.80;;;;;;5013635;28;21029;-62
2023/09/06 12:08:43;;;;;;;7.50;4.90;;;32.90;83.40;;;;;;5013847;28;20489;-62
2023/09/06 12:11:15;;;;;;;7.27;4.90;;;33.00;81.90;;;;;;5013551;28;20448;-61
2023/09/06 12:13:42;;;;;;;9.00;4.80;;;33.20;84.00;;;;;;5013494;28;20874;-67
2023/09/06 12:16:11;;;;;;;6.93;4.67;;;33.40;81.90;;;;;;5013684;28;20818;-64
2023/09/06 12:18:39;;;;;;;9.73;5.50;;;33.30;81.40;;;;;;5011859;28;20514;-64
2023/09/06 12:21:07;;;;;;;8.67;5.07;;;33.40;80.80;;;;;;5013130;28;20456;-66
2023/09/06 12:23:36;;;;;;;7.63;4.70;;;33.50;82.20;;;;;;5013112;28;20464;-62
2023/09/06 12:28:46;;;;;;;10.83;5.27;;;33.50;80.00;;;;;;5012601;28;20475;-63
2023/09/06 12:31:15;;;;;;;7.60;5.10;;;33.50;81.60;;;;;;5012828;28;20449;-63
2023/09/06 12:33:44;;;;;;;9.27;5.20;;;33.80;80.10;;;;;;5012948;28;20455;-62
2023/09/06 12:36:12;;;;;;;8.50;4.80;;;33.80;80.10;;;;;;5012914;28;20491;-67
2023/09/06 12:38:42;;;;;;;8.23;4.90;;;33.90;79.70;;;;;;5012742;28;20451;-63
2023/09/06 12:41:09;;;;;;;7.27;5.00;;;34.10;78.80;;;;;;5011554;28;20987;-63
2023/09/06 12:43:36;;;;;;;8.37;4.60;;;34.10;78.60;;;;;;5012641;28;20448;-63
2023/09/06 12:46:11;;;;;;;8.33;5.30;;;34.40;80.00;;;;;;5012742;28;20448;-63
2023/09/06 12:48:38;;;;;;;8.07;4.87;;;34.30;78.30;;;;;;5012467;28;20541;-63
2023/09/06 12:51:06;;;;;;;7.60;4.80;;;34.20;79.50;;;;;;5012731;28;20455;-62
2023/09/06 12:53:33;;;;;;;6.90;5.00;;;34.00;79.70;;;;;;5011273;28;20510;-63
2023/09/06 12:56:02;;;;;;;8.67;5.50;;;34.00;79.50;;;;;;5012576;28;20459;-63
2023/09/06 12:58:29;;;;;;;8.60;5.20;;;34.00;80.70;;;;;;5011697;28;20966;-63